CheckWX is a tool to help pilots better visualize weather data.  It is not intended as a substitute for an official pre-flight weather briefing.

03:14:05 UTC

YPAD METAR
Adelaide International Airport
Adelaide, Australia
Current

14 mins ago

YPAD 180300Z 03012KT CAVOK 20/M06 Q1022
Observed
Sep-18 @ 03:00 UTC
Wind
  • 030° at 12 KTS
Visibility
10,000+ meters
Flight Rules
VFR
Cloud Levels
  • Clear skies
Temperature
20°C / 68°F
Dewpoint
-6°C / 21°F
Humidity
17%
Altimeter
30.18" Hg
Pressure
1021.92 hPa
Previous

44 mins ago

YPAD 180230Z 02013KT CAVOK 19/M03 Q1023 NOSIG
Observed
Sep-18 @ 02:30 UTC
Wind
  • 020° at 13 KTS
Visibility
10,000+ meters
Flight Rules
VFR
Cloud Levels
  • Clear skies
Temperature
19°C / 66°F
Dewpoint
-3°C / 27°F
Humidity
22%
Altimeter
30.21" Hg
Pressure
1022.92 hPa
Previous

1 hour ago

YPAD 180200Z 36013KT CAVOK 19/M04 Q1024
Observed
Sep-18 @ 02:00 UTC
Wind
  • 360° at 13 KTS
Visibility
10,000+ meters
Flight Rules
VFR
Cloud Levels
  • Clear skies
Temperature
19°C / 66°F
Dewpoint
-4°C / 25°F
Humidity
21%
Altimeter
30.24" Hg
Pressure
1023.92 hPa